Terminal Aerodrome Forecast
Issued by NWS Wichita, KS

Home | Current Version | Previous Version | Graphics & Text | Print | Product List | Glossary On
Versions: 1 2 3 4 5 6 7 8 9 10 11 12 13 14 15 16 17 18 19 20
000
FTUS43 KICT 190500
TAFICT
TAF
KICT 190520Z 1906/2006 13009KT P6SM SKC
     FM191000 15007KT 6SM BR SCT010
      TEMPO 1910/1912 BKN010
     FM191500 18009KT P6SM FEW250
     FM191800 18014G22KT P6SM SKC
     FM200100 16010KT P6SM SCT250=

USA.gov is the U.S. government's official web portal to all federal, state and local government web resources and services.